createdAt,value
2023-03-19T00:01:47.768Z,9.87
2023-03-19T00:04:16.484Z,9.81
2023-03-19T00:06:44.776Z,9.74
2023-03-19T00:09:12.451Z,9.67
2023-03-19T00:11:40.088Z,9.62
2023-03-19T00:14:07.834Z,9.60
2023-03-19T00:16:35.438Z,9.56
2023-03-19T00:19:04.434Z,9.53
2023-03-19T00:21:32.446Z,9.56
2023-03-19T00:24:02.471Z,9.56
2023-03-19T00:26:30.071Z,9.55
2023-03-19T00:28:57.770Z,9.56
2023-03-19T00:31:25.897Z,9.58
2023-03-19T00:33:53.515Z,9.56
2023-03-19T00:36:21.876Z,9.53
2023-03-19T00:38:49.451Z,9.46
2023-03-19T00:41:18.388Z,9.41
2023-03-19T00:43:47.365Z,9.40
2023-03-19T00:46:15.119Z,9.43
2023-03-19T00:48:42.788Z,9.47
2023-03-19T00:51:10.433Z,9.53
2023-03-19T00:53:38.008Z,9.54
2023-03-19T00:56:06.201Z,9.59
2023-03-19T00:58:33.846Z,9.58
2023-03-19T01:01:02.421Z,9.55
2023-03-19T01:03:30.011Z,9.56
2023-03-19T01:05:58.428Z,9.66
2023-03-19T01:08:26.718Z,9.73
2023-03-19T01:10:54.338Z,9.80
2023-03-19T01:13:21.974Z,9.83
2023-03-19T01:15:49.551Z,9.87
2023-03-19T01:18:17.495Z,9.91
2023-03-19T01:20:45.123Z,9.98
2023-03-19T01:23:12.713Z,10.03
2023-03-19T01:25:40.394Z,10.04
2023-03-19T01:28:09.094Z,10.01
2023-03-19T01:30:36.655Z,10.01
2023-03-19T01:33:04.325Z,10.01
2023-03-19T01:35:32.026Z,10.03
2023-03-19T01:37:59.614Z,10.07
2023-03-19T01:40:27.616Z,10.09
2023-03-19T01:42:55.262Z,10.09
2023-03-19T01:45:22.820Z,10.08
2023-03-19T01:47:50.412Z,10.08
2023-03-19T01:50:18.019Z,10.08
2023-03-19T01:52:45.976Z,10.07
2023-03-19T01:55:13.545Z,10.07
2023-03-19T01:57:41.333Z,10.06
2023-03-19T02:00:09.016Z,10.02
2023-03-19T02:02:36.592Z,10.01
2023-03-19T02:05:05.070Z,9.97
2023-03-19T02:07:32.642Z,9.89
2023-03-19T02:10:01.933Z,9.76
2023-03-19T02:12:29.603Z,9.63
2023-03-19T02:14:57.158Z,9.51
2023-03-19T02:17:25.085Z,9.39
2023-03-19T02:19:52.747Z,9.30
2023-03-19T02:22:20.673Z,9.29
2023-03-19T02:24:48.235Z,9.34
2023-03-19T02:27:15.846Z,9.40
2023-03-19T02:29:43.766Z,9.47
2023-03-19T02:32:11.701Z,9.51
2023-03-19T02:34:39.323Z,9.56
2023-03-19T02:37:06.880Z,9.61
2023-03-19T02:39:34.474Z,9.66
2023-03-19T02:42:02.547Z,9.71
2023-03-19T02:44:30.134Z,9.74
2023-03-19T02:46:57.774Z,9.76
2023-03-19T02:49:25.420Z,9.79
2023-03-19T02:51:52.948Z,9.81
2023-03-19T02:54:21.386Z,9.82
2023-03-19T02:56:49.241Z,9.85
2023-03-19T02:59:16.979Z,9.88
2023-03-19T03:01:44.559Z,9.90
2023-03-19T03:04:12.248Z,9.96
2023-03-19T03:06:40.232Z,10.01
2023-03-19T03:09:07.797Z,10.06
2023-03-19T03:11:35.385Z,10.06
2023-03-19T03:14:02.939Z,10.05
2023-03-19T03:16:30.987Z,10.06
2023-03-19T03:18:59.027Z,10.03
2023-03-19T03:21:26.563Z,10.00
2023-03-19T03:23:54.159Z,10.00
2023-03-19T03:26:22.066Z,9.99
2023-03-19T03:28:49.611Z,9.99
2023-03-19T03:31:17.539Z,9.95
2023-03-19T03:33:45.283Z,9.98
2023-03-19T03:36:13.429Z,10.03
2023-03-19T03:38:41.370Z,10.07
2023-03-19T03:41:09.045Z,10.14
2023-03-19T03:43:37.038Z,10.18
2023-03-19T03:46:04.651Z,10.23
2023-03-19T03:48:32.309Z,10.30
2023-03-19T03:50:59.868Z,10.35
2023-03-19T03:53:27.464Z,10.38
2023-03-19T03:55:55.439Z,10.41
2023-03-19T03:58:24.183Z,10.43
2023-03-19T04:00:52.770Z,10.46
2023-03-19T04:03:20.723Z,10.48
2023-03-19T04:05:48.323Z,10.51
2023-03-19T04:08:16.039Z,10.52
2023-03-19T04:10:43.909Z,10.54
2023-03-19T04:13:11.668Z,10.55
2023-03-19T04:15:39.552Z,10.56
2023-03-19T04:18:07.184Z,10.59
2023-03-19T04:20:35.441Z,10.62
2023-03-19T04:23:03.467Z,10.67
2023-03-19T04:25:31.151Z,10.73
2023-03-19T04:27:58.726Z,10.76
2023-03-19T04:30:26.310Z,10.78
2023-03-19T04:32:54.348Z,10.81
2023-03-19T04:35:22.982Z,10.81
2023-03-19T04:37:50.758Z,10.84
2023-03-19T04:40:18.598Z,10.87
2023-03-19T04:42:46.214Z,10.90
2023-03-19T04:45:14.369Z,10.94
2023-03-19T04:47:42.718Z,10.99
2023-03-19T04:50:10.654Z,11.01
2023-03-19T04:52:39.453Z,11.02
2023-03-19T04:55:07.071Z,11.03
2023-03-19T04:57:34.838Z,11.03
2023-03-19T05:00:02.438Z,11.04
2023-03-19T05:02:30.220Z,11.04
2023-03-19T05:04:58.194Z,11.06
2023-03-19T05:07:26.499Z,11.08
2023-03-19T05:09:54.468Z,11.10
2023-03-19T05:12:22.006Z,11.11
2023-03-19T05:14:49.767Z,11.10
2023-03-19T05:17:17.489Z,11.08
2023-03-19T05:19:45.020Z,11.08
2023-03-19T05:22:12.944Z,11.06
2023-03-19T05:24:40.562Z,11.02
2023-03-19T05:27:09.535Z,10.99
2023-03-19T05:29:39.293Z,10.98
2023-03-19T05:32:08.417Z,10.94
2023-03-19T05:34:36.371Z,10.94
2023-03-19T05:37:04.046Z,10.97
2023-03-19T05:39:31.703Z,11.04
2023-03-19T05:41:59.261Z,11.08
2023-03-19T05:44:26.808Z,11.13
2023-03-19T05:46:54.908Z,11.16
2023-03-19T05:49:22.468Z,11.14
2023-03-19T05:51:50.226Z,11.11
2023-03-19T05:54:17.878Z,11.11
2023-03-19T05:56:45.491Z,11.13
2023-03-19T05:59:13.122Z,11.10
2023-03-19T06:01:40.979Z,11.06
2023-03-19T06:04:08.798Z,11.03
2023-03-19T06:06:36.644Z,10.98
2023-03-19T06:09:04.623Z,10.96
2023-03-19T06:11:32.724Z,10.93
2023-03-19T06:14:00.313Z,10.93
2023-03-19T06:16:28.462Z,10.94
2023-03-19T06:18:56.324Z,10.97
2023-03-19T06:21:25.990Z,11.01
2023-03-19T06:23:53.942Z,11.05
2023-03-19T06:26:21.530Z,11.08
2023-03-19T06:28:49.363Z,11.12
2023-03-19T06:31:17.545Z,11.20
2023-03-19T06:33:45.173Z,11.27
2023-03-19T06:36:13.172Z,11.33
2023-03-19T06:38:40.844Z,11.39
2023-03-19T06:41:08.613Z,11.49
2023-03-19T06:43:37.354Z,11.61
2023-03-19T06:46:05.103Z,11.74
2023-03-19T06:48:32.711Z,11.90
2023-03-19T06:51:00.879Z,12.03
2023-03-19T06:53:29.607Z,12.18
2023-03-19T06:55:57.162Z,12.29
2023-03-19T06:58:24.812Z,12.39
2023-03-19T07:00:52.835Z,12.46
2023-03-19T07:03:20.790Z,12.50
2023-03-19T07:05:48.394Z,12.52
2023-03-19T07:08:16.047Z,12.46
2023-03-19T07:10:43.672Z,12.37
2023-03-19T07:13:13.086Z,12.37
2023-03-19T07:15:41.157Z,12.36
2023-03-19T07:18:08.925Z,12.35
2023-03-19T07:20:36.911Z,12.35
2023-03-19T07:23:04.817Z,12.34
2023-03-19T07:25:32.803Z,12.34
2023-03-19T07:28:00.609Z,12.34
2023-03-19T07:30:28.577Z,12.36
2023-03-19T07:32:56.646Z,12.39
2023-03-19T07:35:24.479Z,12.43
2023-03-19T07:37:52.932Z,12.51
2023-03-19T07:40:20.708Z,12.61
2023-03-19T07:42:48.642Z,12.71
2023-03-19T07:45:16.324Z,12.83
2023-03-19T07:47:44.019Z,12.93
2023-03-19T07:50:11.694Z,13.02
2023-03-19T07:52:39.489Z,13.14
2023-03-19T07:55:07.328Z,13.27
2023-03-19T07:57:34.950Z,13.42
2023-03-19T08:00:03.343Z,13.56
2023-03-19T08:02:31.693Z,13.70
2023-03-19T08:05:02.238Z,13.83
2023-03-19T08:07:30.276Z,13.93
2023-03-19T08:09:58.483Z,14.02
2023-03-19T08:12:26.275Z,14.09
2023-03-19T08:14:54.340Z,14.08
2023-03-19T08:17:22.209Z,14.06
2023-03-19T08:19:49.955Z,14.05
2023-03-19T08:22:17.596Z,14.01
2023-03-19T08:24:45.388Z,13.99
2023-03-19T08:27:13.458Z,13.96
2023-03-19T08:29:41.298Z,13.93
2023-03-19T08:32:09.095Z,13.90
2023-03-19T08:34:36.752Z,13.89
2023-03-19T08:37:04.559Z,13.89
2023-03-19T08:39:32.341Z,13.86
2023-03-19T08:42:00.042Z,13.83
2023-03-19T08:44:29.117Z,13.78
2023-03-19T08:46:56.799Z,13.72
2023-03-19T08:49:24.456Z,13.69
2023-03-19T08:51:52.508Z,13.64
2023-03-19T08:54:22.823Z,13.60
2023-03-19T08:56:51.100Z,13.58
2023-03-19T08:59:19.124Z,13.62
2023-03-19T09:01:47.096Z,13.62
2023-03-19T09:04:14.879Z,13.58
2023-03-19T09:06:43.277Z,13.59
2023-03-19T09:09:11.216Z,13.63
2023-03-19T09:11:38.979Z,13.70
2023-03-19T09:14:07.497Z,13.77
2023-03-19T09:16:35.630Z,13.85
2023-03-19T09:19:03.495Z,14.00
2023-03-19T09:21:31.833Z,14.21
2023-03-19T09:23:59.534Z,14.43
2023-03-19T09:26:27.325Z,14.63
2023-03-19T09:28:55.915Z,15.03
2023-03-19T09:31:23.928Z,15.47
2023-03-19T09:33:52.071Z,15.63
2023-03-19T09:36:20.032Z,15.63
2023-03-19T09:38:48.332Z,15.60
2023-03-19T09:41:16.440Z,15.51
2023-03-19T09:43:44.227Z,15.41
2023-03-19T09:46:12.239Z,15.31
2023-03-19T09:48:40.116Z,15.21
2023-03-19T09:51:07.974Z,15.10
2023-03-19T09:53:36.699Z,15.00
2023-03-19T09:56:04.464Z,14.99
2023-03-19T09:58:32.367Z,15.02
2023-03-19T10:01:00.379Z,15.16
2023-03-19T10:03:28.083Z,15.34
2023-03-19T10:05:56.077Z,15.58
2023-03-19T10:08:23.924Z,16.15
2023-03-19T10:10:51.999Z,17.02
2023-03-19T10:13:20.831Z,17.66
2023-03-19T10:15:49.281Z,17.79
2023-03-19T10:18:17.582Z,17.84
2023-03-19T10:20:45.720Z,17.89
2023-03-19T10:23:13.705Z,19.09
2023-03-19T10:25:41.775Z,20.30
2023-03-19T10:28:09.820Z,21.20
2023-03-19T10:30:37.935Z,21.41
2023-03-19T10:33:05.700Z,21.16
2023-03-19T10:35:38.915Z,20.83
2023-03-19T10:38:06.904Z,20.40
2023-03-19T10:40:34.719Z,19.93
2023-03-19T10:43:03.140Z,19.56
2023-03-19T10:45:31.103Z,19.16
2023-03-19T10:47:59.119Z,18.82
2023-03-19T10:50:27.275Z,18.58
2023-03-19T10:52:55.069Z,18.49
2023-03-19T10:55:23.430Z,18.51
2023-03-19T10:57:51.650Z,18.79
2023-03-19T11:00:19.961Z,19.37
2023-03-19T11:02:47.829Z,19.69
2023-03-19T11:05:16.037Z,20.60
2023-03-19T11:07:44.292Z,21.21
2023-03-19T11:10:12.552Z,21.41
2023-03-19T11:12:40.567Z,21.90
2023-03-19T11:15:08.744Z,22.30
2023-03-19T11:17:36.568Z,23.11
2023-03-19T11:20:04.890Z,23.01
2023-03-19T11:22:33.279Z,22.81
2023-03-19T11:25:01.291Z,22.89
2023-03-19T11:27:30.091Z,22.67
2023-03-19T11:29:58.045Z,22.29
2023-03-19T11:32:26.435Z,21.89
2023-03-19T11:34:54.417Z,21.35
2023-03-19T11:37:22.779Z,20.67
2023-03-19T11:39:51.084Z,20.28
2023-03-19T11:42:20.173Z,20.83
2023-03-19T11:44:48.234Z,22.26
2023-03-19T11:47:26.652Z,23.43
2023-03-19T11:49:55.843Z,24.28
2023-03-19T11:52:23.874Z,23.44
2023-03-19T11:54:52.028Z,22.14
2023-03-19T11:57:20.462Z,21.59
2023-03-19T11:59:48.343Z,21.11
2023-03-19T12:02:16.727Z,21.65
2023-03-19T12:04:44.605Z,22.76
2023-03-19T12:07:12.533Z,23.49
2023-03-19T12:09:40.444Z,23.79
2023-03-19T12:12:08.664Z,24.25
2023-03-19T12:14:36.955Z,24.67
2023-03-19T12:17:07.333Z,25.06
2023-03-19T12:19:35.780Z,25.37
2023-03-19T12:22:03.490Z,25.50
2023-03-19T12:24:31.380Z,25.78
2023-03-19T12:26:59.506Z,25.67
2023-03-19T12:29:27.514Z,25.66
2023-03-19T12:31:55.755Z,25.76
2023-03-19T12:34:24.229Z,25.77
2023-03-19T12:36:52.104Z,25.56
2023-03-19T12:39:20.229Z,24.92
2023-03-19T12:41:48.761Z,23.80
2023-03-19T12:44:17.733Z,22.90
2023-03-19T12:46:46.166Z,21.97
2023-03-19T12:49:14.162Z,21.18
2023-03-19T12:51:42.537Z,20.52
2023-03-19T12:54:10.397Z,20.04
2023-03-19T12:56:38.643Z,19.73
2023-03-19T12:59:07.683Z,19.51
2023-03-19T13:01:35.676Z,19.23
2023-03-19T13:04:04.180Z,19.03
2023-03-19T13:06:32.541Z,18.78
2023-03-19T13:09:00.330Z,18.72
2023-03-19T13:11:28.347Z,18.79
2023-03-19T13:13:56.224Z,18.73
2023-03-19T13:16:24.460Z,18.54
2023-03-19T13:18:53.138Z,18.32
2023-03-19T13:21:21.470Z,18.14
2023-03-19T13:23:49.228Z,17.99
2023-03-19T13:26:17.333Z,17.89
2023-03-19T13:28:46.726Z,17.90
2023-03-19T13:31:14.605Z,18.24
2023-03-19T13:33:42.826Z,18.52
2023-03-19T13:36:10.688Z,18.44
2023-03-19T13:38:38.514Z,18.14
2023-03-19T13:41:06.704Z,17.75
2023-03-19T13:43:34.544Z,17.46
2023-03-19T13:46:03.581Z,17.28
2023-03-19T13:48:31.650Z,17.26
2023-03-19T13:50:59.374Z,17.25
2023-03-19T13:53:27.520Z,17.17
2023-03-19T13:55:55.539Z,16.98
2023-03-19T13:58:40.868Z,16.76
2023-03-19T14:01:09.066Z,16.52
2023-03-19T14:03:37.454Z,16.31
2023-03-19T14:06:05.665Z,16.14
2023-03-19T14:08:33.959Z,16.02
2023-03-19T14:11:02.577Z,15.96
2023-03-19T14:13:31.619Z,15.90
2023-03-19T14:15:59.901Z,15.86
2023-03-19T14:18:27.724Z,15.84
2023-03-19T14:20:56.045Z,15.89
2023-03-19T14:23:36.098Z,15.98
2023-03-19T14:26:06.748Z,16.10
2023-03-19T14:28:34.675Z,16.17
2023-03-19T14:31:02.867Z,16.24
2023-03-19T14:33:30.970Z,16.25
2023-03-19T14:35:59.005Z,16.20
2023-03-19T14:38:27.076Z,16.14
2023-03-19T14:40:55.015Z,16.14
2023-03-19T14:43:23.107Z,16.26
2023-03-19T14:45:51.410Z,16.61
2023-03-19T14:48:19.285Z,17.00
2023-03-19T14:50:47.266Z,17.16
2023-03-19T14:53:15.143Z,17.15
2023-03-19T14:55:43.065Z,17.03
2023-03-19T14:58:11.575Z,16.89
2023-03-19T15:00:39.391Z,16.79
2023-03-19T15:03:07.609Z,16.66
2023-03-19T15:05:36.687Z,16.53
2023-03-19T15:08:04.728Z,16.38
2023-03-19T15:10:33.072Z,16.22
2023-03-19T15:13:01.281Z,16.05
2023-03-19T15:15:30.875Z,15.88
2023-03-19T15:18:03.770Z,15.71
2023-03-19T15:20:32.298Z,15.53
2023-03-19T15:23:00.090Z,15.35
2023-03-19T15:25:27.918Z,15.22
2023-03-19T15:27:55.942Z,15.08
2023-03-19T15:30:24.772Z,14.93
2023-03-19T15:33:07.821Z,14.81
2023-03-19T15:35:39.564Z,14.70
2023-03-19T15:38:07.363Z,14.63
2023-03-19T15:40:36.877Z,14.59
2023-03-19T15:43:05.131Z,14.57
2023-03-19T15:45:34.059Z,14.58
2023-03-19T15:48:02.747Z,14.61
2023-03-19T15:50:30.707Z,14.67
2023-03-19T15:52:58.558Z,14.67
2023-03-19T15:55:26.626Z,14.71
2023-03-19T15:57:56.567Z,14.73
2023-03-19T16:00:25.149Z,14.76
2023-03-19T16:02:53.054Z,14.85
2023-03-19T16:05:23.059Z,14.95
2023-03-19T16:07:54.792Z,15.04
2023-03-19T16:10:22.727Z,15.14
2023-03-19T16:12:51.630Z,15.23
2023-03-19T16:15:19.842Z,15.25
2023-03-19T16:17:49.542Z,15.27
2023-03-19T16:20:17.547Z,15.31
2023-03-19T16:22:45.443Z,15.34
2023-03-19T16:25:13.835Z,15.34
2023-03-19T16:27:43.242Z,15.31
2023-03-19T16:30:11.215Z,15.25
2023-03-19T16:32:39.388Z,15.17
2023-03-19T16:35:07.361Z,15.09
2023-03-19T16:37:35.553Z,15.01
2023-03-19T16:40:04.944Z,14.94
2023-03-19T16:42:32.803Z,14.89
2023-03-19T16:45:00.755Z,14.85
2023-03-19T16:47:28.800Z,14.81
2023-03-19T16:49:56.638Z,14.76
2023-03-19T16:52:24.528Z,14.70
2023-03-19T16:54:53.161Z,14.64
2023-03-19T16:57:21.131Z,14.61
2023-03-19T16:59:49.000Z,14.61
2023-03-19T17:02:18.667Z,14.61
2023-03-19T17:04:46.753Z,14.59
2023-03-19T17:07:14.584Z,14.56
2023-03-19T17:09:42.650Z,14.50
2023-03-19T17:12:10.607Z,14.43
2023-03-19T17:14:38.990Z,14.31
2023-03-19T17:17:07.075Z,14.18
2023-03-19T17:19:35.303Z,14.03
2023-03-19T17:22:03.371Z,13.89
2023-03-19T17:24:31.526Z,13.75
2023-03-19T17:26:59.982Z,13.63
2023-03-19T17:29:28.007Z,13.51
2023-03-19T17:31:55.940Z,13.40
2023-03-19T17:34:23.890Z,13.30
2023-03-19T17:36:51.774Z,13.22
2023-03-19T17:39:20.556Z,13.15
2023-03-19T17:41:48.419Z,13.07
2023-03-19T17:44:16.588Z,12.99
2023-03-19T17:46:44.543Z,12.92
2023-03-19T17:49:12.606Z,12.84
2023-03-19T17:51:40.717Z,12.78
2023-03-19T17:54:08.800Z,12.75
2023-03-19T17:56:36.695Z,12.69
2023-03-19T17:59:04.524Z,12.64
2023-03-19T18:01:32.582Z,12.57
2023-03-19T18:04:00.979Z,12.52
2023-03-19T18:06:30.754Z,12.47
2023-03-19T18:08:58.828Z,12.44
2023-03-19T18:11:26.659Z,12.42
2023-03-19T18:13:54.638Z,12.38
2023-03-19T18:16:23.148Z,12.34
2023-03-19T18:18:51.177Z,12.32
2023-03-19T18:21:19.014Z,12.33
2023-03-19T18:23:46.972Z,12.34
2023-03-19T18:26:17.237Z,12.36
2023-03-19T18:28:46.310Z,12.38
2023-03-19T18:31:15.129Z,12.39
2023-03-19T18:33:43.015Z,12.40
2023-03-19T18:36:10.972Z,12.41
2023-03-19T18:38:38.876Z,12.41
2023-03-19T18:41:07.234Z,12.41
2023-03-19T18:43:35.071Z,12.41
2023-03-19T18:46:03.448Z,12.40
2023-03-19T18:48:32.203Z,12.38
2023-03-19T18:51:00.382Z,12.37
2023-03-19T18:53:30.526Z,12.35
2023-03-19T18:55:58.783Z,12.34
2023-03-19T18:58:27.085Z,12.32
2023-03-19T19:00:55.358Z,12.31
2023-03-19T19:03:23.556Z,12.32
2023-03-19T19:05:54.622Z,12.32
2023-03-19T19:08:22.893Z,12.33
2023-03-19T19:10:50.946Z,12.33
2023-03-19T19:13:19.287Z,12.35
2023-03-19T19:15:47.293Z,12.37
2023-03-19T19:18:15.595Z,12.38
2023-03-19T19:20:43.413Z,12.41
2023-03-19T19:23:11.648Z,12.44
2023-03-19T19:25:39.632Z,12.46
2023-03-19T19:28:07.571Z,12.50
2023-03-19T19:30:36.279Z,12.51
2023-03-19T19:33:04.951Z,12.54
2023-03-19T19:35:33.493Z,12.54
2023-03-19T19:38:01.556Z,12.55
2023-03-19T19:40:29.384Z,12.56
2023-03-19T19:42:57.841Z,12.56
2023-03-19T19:45:26.233Z,12.58
2023-03-19T19:47:54.123Z,12.59
2023-03-19T19:50:22.357Z,12.60
2023-03-19T19:52:50.325Z,12.61
2023-03-19T19:55:18.467Z,12.61
2023-03-19T19:57:47.981Z,12.61
2023-03-19T20:00:15.988Z,12.60
2023-03-19T20:02:43.871Z,12.60
2023-03-19T20:05:11.629Z,12.60
2023-03-19T20:07:39.664Z,12.57
2023-03-19T20:10:07.577Z,12.58
2023-03-19T20:12:35.508Z,12.57
2023-03-19T20:15:03.535Z,12.55
2023-03-19T20:17:31.318Z,12.54
2023-03-19T20:19:59.311Z,12.54
2023-03-19T20:22:27.568Z,12.53
2023-03-19T20:24:55.349Z,12.53
2023-03-19T20:27:23.256Z,12.54
2023-03-19T20:29:51.682Z,12.53
2023-03-19T20:32:19.480Z,12.53
2023-03-19T20:34:47.397Z,12.52
2023-03-19T20:37:15.402Z,12.51
2023-03-19T20:39:44.406Z,12.50
2023-03-19T20:42:12.159Z,12.50
2023-03-19T20:44:40.699Z,12.51
2023-03-19T20:47:08.696Z,12.51
2023-03-19T20:49:36.423Z,12.52
2023-03-19T20:52:04.474Z,12.53
2023-03-19T20:54:32.329Z,12.54
2023-03-19T20:57:00.493Z,12.56
2023-03-19T20:59:29.261Z,12.56
2023-03-19T21:01:57.753Z,12.58
2023-03-19T21:04:25.691Z,12.59
2023-03-19T21:06:54.486Z,12.61
2023-03-19T21:09:23.128Z,12.61
2023-03-19T21:11:52.415Z,12.62
2023-03-19T21:14:23.637Z,12.63
2023-03-19T21:16:51.345Z,12.61
2023-03-19T21:19:19.129Z,12.59
2023-03-19T21:21:49.244Z,12.57
2023-03-19T21:24:17.787Z,12.53
2023-03-19T21:26:46.465Z,12.50
2023-03-19T21:29:14.352Z,12.45
2023-03-19T21:31:43.012Z,12.44
2023-03-19T21:34:11.587Z,12.42
2023-03-19T21:36:39.851Z,12.39
2023-03-19T21:39:07.678Z,12.36
2023-03-19T21:41:36.331Z,12.33
2023-03-19T21:44:04.760Z,12.31
2023-03-19T21:46:32.833Z,12.29
2023-03-19T21:49:00.650Z,12.27
2023-03-19T21:51:28.861Z,12.26
2023-03-19T21:53:56.645Z,12.24
2023-03-19T21:56:24.695Z,12.24
2023-03-19T21:58:53.181Z,12.22
2023-03-19T22:01:21.317Z,12.22
2023-03-19T22:03:49.237Z,12.21
2023-03-19T22:06:19.364Z,12.20
2023-03-19T22:08:48.353Z,12.21
2023-03-19T22:11:16.510Z,12.20
2023-03-19T22:13:44.865Z,12.19
2023-03-19T22:16:13.055Z,12.19
2023-03-19T22:18:40.842Z,12.18
2023-03-19T22:21:09.493Z,12.17
2023-03-19T22:23:37.744Z,12.15
2023-03-19T22:26:05.689Z,12.16
2023-03-19T22:28:33.872Z,12.16
2023-03-19T22:31:01.995Z,12.16
2023-03-19T22:33:29.765Z,12.16
2023-03-19T22:35:57.844Z,12.15
2023-03-19T22:38:25.646Z,12.15
2023-03-19T22:40:53.342Z,12.15
2023-03-19T22:43:21.174Z,12.14
2023-03-19T22:45:48.930Z,12.14
2023-03-19T22:48:18.122Z,12.11
2023-03-19T22:50:46.002Z,12.08
2023-03-19T22:53:13.680Z,12.08
2023-03-19T22:55:41.682Z,12.07
2023-03-19T22:58:09.627Z,12.08
2023-03-19T23:00:37.766Z,12.08
2023-03-19T23:03:05.496Z,12.06
2023-03-19T23:05:33.679Z,12.06
2023-03-19T23:08:02.314Z,12.04
2023-03-19T23:10:30.833Z,12.02
2023-03-19T23:12:59.295Z,12.01
2023-03-19T23:15:27.237Z,11.98
2023-03-19T23:17:56.021Z,11.97
2023-03-19T23:20:24.060Z,11.94
2023-03-19T23:22:51.672Z,11.92
2023-03-19T23:25:19.327Z,11.89
2023-03-19T23:27:47.021Z,11.87
2023-03-19T23:30:14.623Z,11.83
2023-03-19T23:32:42.678Z,11.79
2023-03-19T23:35:10.815Z,11.75
2023-03-19T23:37:39.411Z,11.71
2023-03-19T23:40:07.301Z,11.68
2023-03-19T23:42:34.981Z,11.64
2023-03-19T23:45:03.883Z,11.61
2023-03-19T23:47:31.817Z,11.56
2023-03-19T23:49:59.498Z,11.51
2023-03-19T23:52:27.268Z,11.50
2023-03-19T23:54:54.899Z,11.48
2023-03-19T23:57:23.170Z,11.46
2023-03-19T23:59:51.085Z,11.44
